CYXP

Pangnirtung Airport

Pangnirtung, Canada
METAR CYXP 211500Z 26003KT 15SM SKC M12/M14 A3020 RMK SLP230
Observed Flight Rules
Apr-21 @ 15:00 UTC (40 minutes ago) Visual Flight Rules
Wind Visibility Clouds
260° at 3 knots 15 miles
  • Clear skies
Temperatures Readings
Current -12°C / 10°F
Dewpoint -14°C / 7°F
Humidity 85%
Altimeter 30.2" Hg
Pressure 1023 hPa
Elevation 23
METAR CYXP 211500Z 26003KT 15SM SKC M12/M14 A3020 RMK SLP230
Observed Flight Rules
Apr-21 @ 15:00 UTC
(40 minutes ago)
VFR
Wind Visibility
260° at 3 knots 15 miles
Clouds
  • Clear skies
Temperature Dewpoint
-12°C / 10°F -14°C / 7°F
Humidity Altimeter Pressure
85% 30.2" Hg 1023 hPa